sensor_id;sensor_type;location;lat;lon;timestamp;temperature;humidity
5027;DHT22;2532;52.480;13.354;2023-01-29T00:01:15;2.40;86.30
5027;DHT22;2532;52.480;13.354;2023-01-29T00:03:42;2.40;86.30
5027;DHT22;2532;52.480;13.354;2023-01-29T00:06:09;2.40;86.40
5027;DHT22;2532;52.480;13.354;2023-01-29T00:08:38;2.40;86.50
5027;DHT22;2532;52.480;13.354;2023-01-29T00:11:07;2.40;86.40
5027;DHT22;2532;52.480;13.354;2023-01-29T00:13:35;2.40;86.30
5027;DHT22;2532;52.480;13.354;2023-01-29T00:16:02;2.40;86.40
5027;DHT22;2532;52.480;13.354;2023-01-29T00:18:30;2.50;86.40
5027;DHT22;2532;52.480;13.354;2023-01-29T00:20:57;2.50;86.60
5027;DHT22;2532;52.480;13.354;2023-01-29T00:23:24;2.50;86.60
5027;DHT22;2532;52.480;13.354;2023-01-29T00:25:52;2.50;86.60
5027;DHT22;2532;52.480;13.354;2023-01-29T00:28:19;2.50;86.70
5027;DHT22;2532;52.480;13.354;2023-01-29T00:30:49;2.50;86.80
5027;DHT22;2532;52.480;13.354;2023-01-29T00:33:16;2.50;86.90
5027;DHT22;2532;52.480;13.354;2023-01-29T00:35:43;2.50;87.00
5027;DHT22;2532;52.480;13.354;2023-01-29T00:38:10;2.50;87.00
5027;DHT22;2532;52.480;13.354;2023-01-29T00:40:38;2.50;87.00
5027;DHT22;2532;52.480;13.354;2023-01-29T00:43:24;2.60;86.90
5027;DHT22;2532;52.480;13.354;2023-01-29T00:46:09;2.60;86.90
5027;DHT22;2532;52.480;13.354;2023-01-29T00:48:36;2.60;86.90
5027;DHT22;2532;52.480;13.354;2023-01-29T00:51:03;2.60;86.90
5027;DHT22;2532;52.480;13.354;2023-01-29T00:53:30;2.50;87.00
5027;DHT22;2532;52.480;13.354;2023-01-29T00:55:58;2.50;87.10
5027;DHT22;2532;52.480;13.354;2023-01-29T00:58:26;2.50;87.40
5027;DHT22;2532;52.480;13.354;2023-01-29T01:00:59;2.50;87.50
5027;DHT22;2532;52.480;13.354;2023-01-29T01:03:27;2.50;87.60
5027;DHT22;2532;52.480;13.354;2023-01-29T01:06:02;2.50;87.50
5027;DHT22;2532;52.480;13.354;2023-01-29T01:08:30;2.50;87.60
5027;DHT22;2532;52.480;13.354;2023-01-29T01:11:14;2.50;87.70
5027;DHT22;2532;52.480;13.354;2023-01-29T01:13:42;2.50;87.80
5027;DHT22;2532;52.480;13.354;2023-01-29T01:16:10;2.50;87.90
5027;DHT22;2532;52.480;13.354;2023-01-29T01:18:38;2.50;88.00
5027;DHT22;2532;52.480;13.354;2023-01-29T01:21:05;2.50;88.10
5027;DHT22;2532;52.480;13.354;2023-01-29T01:23:33;2.50;88.10
5027;DHT22;2532;52.480;13.354;2023-01-29T01:26:00;2.50;88.20
5027;DHT22;2532;52.480;13.354;2023-01-29T01:28:27;2.50;88.30
5027;DHT22;2532;52.480;13.354;2023-01-29T01:30:55;2.50;88.50
5027;DHT22;2532;52.480;13.354;2023-01-29T01:33:22;2.50;88.50
5027;DHT22;2532;52.480;13.354;2023-01-29T01:35:49;2.50;88.60
5027;DHT22;2532;52.480;13.354;2023-01-29T01:38:16;2.50;88.80
5027;DHT22;2532;52.480;13.354;2023-01-29T01:40:44;2.50;89.00
5027;DHT22;2532;52.480;13.354;2023-01-29T01:43:11;2.50;89.20
5027;DHT22;2532;52.480;13.354;2023-01-29T01:45:38;2.40;89.50
5027;DHT22;2532;52.480;13.354;2023-01-29T01:48:12;2.40;89.60
5027;DHT22;2532;52.480;13.354;2023-01-29T01:50:43;2.40;89.80
5027;DHT22;2532;52.480;13.354;2023-01-29T01:53:15;2.50;90.00
5027;DHT22;2532;52.480;13.354;2023-01-29T01:55:47;2.50;89.70
5027;DHT22;2532;52.480;13.354;2023-01-29T01:58:22;2.50;89.70
5027;DHT22;2532;52.480;13.354;2023-01-29T02:00:50;2.50;89.70
5027;DHT22;2532;52.480;13.354;2023-01-29T02:03:19;2.50;89.60
5027;DHT22;2532;52.480;13.354;2023-01-29T02:06:06;2.60;89.70
5027;DHT22;2532;52.480;13.354;2023-01-29T02:08:53;2.60;89.70
5027;DHT22;2532;52.480;13.354;2023-01-29T02:11:39;2.60;89.60
5027;DHT22;2532;52.480;13.354;2023-01-29T02:14:08;2.60;89.50
5027;DHT22;2532;52.480;13.354;2023-01-29T02:16:36;2.60;89.70
5027;DHT22;2532;52.480;13.354;2023-01-29T02:19:10;2.60;90.10
5027;DHT22;2532;52.480;13.354;2023-01-29T02:21:58;2.60;89.70
5027;DHT22;2532;52.480;13.354;2023-01-29T02:24:40;2.60;90.10
5027;DHT22;2532;52.480;13.354;2023-01-29T02:27:16;2.70;89.60
5027;DHT22;2532;52.480;13.354;2023-01-29T02:29:53;2.70;90.10
5027;DHT22;2532;52.480;13.354;2023-01-29T02:32:26;2.70;89.60
5027;DHT22;2532;52.480;13.354;2023-01-29T02:35:03;2.70;89.60
5027;DHT22;2532;52.480;13.354;2023-01-29T02:37:54;2.60;89.50
5027;DHT22;2532;52.480;13.354;2023-01-29T02:40:28;2.70;89.80
5027;DHT22;2532;52.480;13.354;2023-01-29T02:43:05;2.70;89.90
5027;DHT22;2532;52.480;13.354;2023-01-29T02:45:42;2.70;89.70
5027;DHT22;2532;52.480;13.354;2023-01-29T02:48:18;2.70;89.80
5027;DHT22;2532;52.480;13.354;2023-01-29T02:50:48;2.70;89.90
5027;DHT22;2532;52.480;13.354;2023-01-29T02:53:19;2.70;89.80
5027;DHT22;2532;52.480;13.354;2023-01-29T02:55:54;2.70;89.80
5027;DHT22;2532;52.480;13.354;2023-01-29T02:58:26;2.80;90.00
5027;DHT22;2532;52.480;13.354;2023-01-29T03:01:00;2.80;90.00
5027;DHT22;2532;52.480;13.354;2023-01-29T03:03:33;2.80;89.90
5027;DHT22;2532;52.480;13.354;2023-01-29T03:06:04;2.80;89.90
5027;DHT22;2532;52.480;13.354;2023-01-29T03:08:38;2.70;89.80
5027;DHT22;2532;52.480;13.354;2023-01-29T03:11:11;2.80;90.00
5027;DHT22;2532;52.480;13.354;2023-01-29T03:13:43;2.70;90.00
5027;DHT22;2532;52.480;13.354;2023-01-29T03:16:19;2.70;90.00
5027;DHT22;2532;52.480;13.354;2023-01-29T03:18:51;2.70;90.10
5027;DHT22;2532;52.480;13.354;2023-01-29T03:21:24;2.60;90.10
5027;DHT22;2532;52.480;13.354;2023-01-29T03:24:11;2.60;90.20
5027;DHT22;2532;52.480;13.354;2023-01-29T03:27:00;2.70;90.20
5027;DHT22;2532;52.480;13.354;2023-01-29T03:29:47;2.70;90.30
5027;DHT22;2532;52.480;13.354;2023-01-29T03:32:33;2.70;90.40
5027;DHT22;2532;52.480;13.354;2023-01-29T03:35:05;2.70;90.40
5027;DHT22;2532;52.480;13.354;2023-01-29T03:37:36;2.70;90.50
5027;DHT22;2532;52.480;13.354;2023-01-29T03:40:08;2.70;90.40
5027;DHT22;2532;52.480;13.354;2023-01-29T03:42:48;2.70;90.40
5027;DHT22;2532;52.480;13.354;2023-01-29T03:45:24;2.70;90.40
5027;DHT22;2532;52.480;13.354;2023-01-29T03:48:03;2.70;90.40
5027;DHT22;2532;52.480;13.354;2023-01-29T03:50:36;2.70;90.50
5027;DHT22;2532;52.480;13.354;2023-01-29T03:53:09;2.70;90.50
5027;DHT22;2532;52.480;13.354;2023-01-29T03:55:43;2.70;90.60
5027;DHT22;2532;52.480;13.354;2023-01-29T03:58:24;2.80;90.90
5027;DHT22;2532;52.480;13.354;2023-01-29T04:00:55;2.80;90.50
5027;DHT22;2532;52.480;13.354;2023-01-29T04:03:30;2.80;90.50
5027;DHT22;2532;52.480;13.354;2023-01-29T04:06:05;2.80;90.50
5027;DHT22;2532;52.480;13.354;2023-01-29T04:08:40;2.80;90.50
5027;DHT22;2532;52.480;13.354;2023-01-29T04:11:18;2.80;90.50
5027;DHT22;2532;52.480;13.354;2023-01-29T04:13:47;2.80;90.50
5027;DHT22;2532;52.480;13.354;2023-01-29T04:16:17;2.80;90.60
5027;DHT22;2532;52.480;13.354;2023-01-29T04:18:48;2.80;90.70
5027;DHT22;2532;52.480;13.354;2023-01-29T04:21:15;2.70;90.80
5027;DHT22;2532;52.480;13.354;2023-01-29T04:23:42;2.80;90.90
5027;DHT22;2532;52.480;13.354;2023-01-29T04:26:23;2.80;91.00
5027;DHT22;2532;52.480;13.354;2023-01-29T04:29:19;2.70;91.00
5027;DHT22;2532;52.480;13.354;2023-01-29T04:31:59;2.80;91.20
5027;DHT22;2532;52.480;13.354;2023-01-29T04:34:37;2.70;91.30
5027;DHT22;2532;52.480;13.354;2023-01-29T04:37:13;2.70;91.50
5027;DHT22;2532;52.480;13.354;2023-01-29T04:39:47;2.70;91.60
5027;DHT22;2532;52.480;13.354;2023-01-29T04:42:19;2.70;91.70
5027;DHT22;2532;52.480;13.354;2023-01-29T04:44:53;2.70;91.80
5027;DHT22;2532;52.480;13.354;2023-01-29T04:47:30;2.70;91.90
5027;DHT22;2532;52.480;13.354;2023-01-29T04:50:08;2.70;92.30
5027;DHT22;2532;52.480;13.354;2023-01-29T04:52:43;2.70;92.00
5027;DHT22;2532;52.480;13.354;2023-01-29T04:55:16;2.70;92.10
5027;DHT22;2532;52.480;13.354;2023-01-29T04:57:50;2.70;92.10
5027;DHT22;2532;52.480;13.354;2023-01-29T05:00:21;2.70;92.30
5027;DHT22;2532;52.480;13.354;2023-01-29T05:02:50;2.70;92.30
5027;DHT22;2532;52.480;13.354;2023-01-29T05:05:20;2.70;92.70
5027;DHT22;2532;52.480;13.354;2023-01-29T05:07:47;2.80;92.60
5027;DHT22;2532;52.480;13.354;2023-01-29T05:10:17;2.80;92.70
5027;DHT22;2532;52.480;13.354;2023-01-29T05:12:48;2.80;92.80
5027;DHT22;2532;52.480;13.354;2023-01-29T05:15:20;2.70;93.00
5027;DHT22;2532;52.480;13.354;2023-01-29T05:17:49;2.80;93.20
5027;DHT22;2532;52.480;13.354;2023-01-29T05:20:19;2.80;93.40
5027;DHT22;2532;52.480;13.354;2023-01-29T05:22:47;2.80;93.60
5027;DHT22;2532;52.480;13.354;2023-01-29T05:25:21;2.70;93.50
5027;DHT22;2532;52.480;13.354;2023-01-29T05:27:49;2.70;93.60
5027;DHT22;2532;52.480;13.354;2023-01-29T05:30:32;2.70;93.70
5027;DHT22;2532;52.480;13.354;2023-01-29T05:33:00;2.70;93.90
5027;DHT22;2532;52.480;13.354;2023-01-29T05:35:29;2.70;94.00
5027;DHT22;2532;52.480;13.354;2023-01-29T05:37:56;2.70;94.10
5027;DHT22;2532;52.480;13.354;2023-01-29T05:40:23;2.70;94.10
5027;DHT22;2532;52.480;13.354;2023-01-29T05:42:50;2.80;94.30
5027;DHT22;2532;52.480;13.354;2023-01-29T05:45:18;2.80;94.30
5027;DHT22;2532;52.480;13.354;2023-01-29T05:47:45;2.80;94.40
5027;DHT22;2532;52.480;13.354;2023-01-29T05:50:13;2.80;94.50
5027;DHT22;2532;52.480;13.354;2023-01-29T05:52:41;2.80;94.40
5027;DHT22;2532;52.480;13.354;2023-01-29T05:55:08;2.80;94.50
5027;DHT22;2532;52.480;13.354;2023-01-29T05:57:35;2.80;94.60
5027;DHT22;2532;52.480;13.354;2023-01-29T06:00:04;2.80;94.60
5027;DHT22;2532;52.480;13.354;2023-01-29T06:02:31;2.80;94.70
5027;DHT22;2532;52.480;13.354;2023-01-29T06:04:58;2.80;94.90
5027;DHT22;2532;52.480;13.354;2023-01-29T06:07:25;2.80;94.90
5027;DHT22;2532;52.480;13.354;2023-01-29T06:09:53;2.70;94.90
5027;DHT22;2532;52.480;13.354;2023-01-29T06:12:20;2.80;95.10
5027;DHT22;2532;52.480;13.354;2023-01-29T06:14:47;2.80;95.10
5027;DHT22;2532;52.480;13.354;2023-01-29T06:17:14;2.80;95.20
5027;DHT22;2532;52.480;13.354;2023-01-29T06:19:40;2.70;95.10
5027;DHT22;2532;52.480;13.354;2023-01-29T06:22:07;2.80;95.20
5027;DHT22;2532;52.480;13.354;2023-01-29T06:24:34;2.80;95.30
5027;DHT22;2532;52.480;13.354;2023-01-29T06:27:03;2.80;95.20
5027;DHT22;2532;52.480;13.354;2023-01-29T06:29:29;2.80;95.20
5027;DHT22;2532;52.480;13.354;2023-01-29T06:31:56;2.80;95.10
5027;DHT22;2532;52.480;13.354;2023-01-29T06:34:23;2.80;95.10
5027;DHT22;2532;52.480;13.354;2023-01-29T06:36:50;2.80;95.20
5027;DHT22;2532;52.480;13.354;2023-01-29T06:39:17;2.90;95.20
5027;DHT22;2532;52.480;13.354;2023-01-29T06:41:44;2.90;95.30
5027;DHT22;2532;52.480;13.354;2023-01-29T06:44:12;2.90;95.20
5027;DHT22;2532;52.480;13.354;2023-01-29T06:46:39;2.90;95.10
5027;DHT22;2532;52.480;13.354;2023-01-29T06:49:06;2.90;95.00
5027;DHT22;2532;52.480;13.354;2023-01-29T06:51:33;2.80;95.10
5027;DHT22;2532;52.480;13.354;2023-01-29T06:54:00;2.80;95.20
5027;DHT22;2532;52.480;13.354;2023-01-29T06:56:27;2.80;95.40
5027;DHT22;2532;52.480;13.354;2023-01-29T06:58:54;2.80;95.40
5027;DHT22;2532;52.480;13.354;2023-01-29T07:01:22;2.90;95.40
5027;DHT22;2532;52.480;13.354;2023-01-29T07:03:49;2.90;95.30
5027;DHT22;2532;52.480;13.354;2023-01-29T07:06:16;2.90;95.20
5027;DHT22;2532;52.480;13.354;2023-01-29T07:08:43;3.00;95.20
5027;DHT22;2532;52.480;13.354;2023-01-29T07:11:11;3.00;95.10
5027;DHT22;2532;52.480;13.354;2023-01-29T07:13:38;3.00;95.10
5027;DHT22;2532;52.480;13.354;2023-01-29T07:16:05;3.00;95.10
5027;DHT22;2532;52.480;13.354;2023-01-29T07:18:33;3.00;95.30
5027;DHT22;2532;52.480;13.354;2023-01-29T07:21:04;3.10;95.30
5027;DHT22;2532;52.480;13.354;2023-01-29T07:23:32;3.00;95.20
5027;DHT22;2532;52.480;13.354;2023-01-29T07:26:00;3.10;95.30
5027;DHT22;2532;52.480;13.354;2023-01-29T07:28:27;3.10;95.40
5027;DHT22;2532;52.480;13.354;2023-01-29T07:30:56;3.10;95.40
5027;DHT22;2532;52.480;13.354;2023-01-29T07:33:23;3.10;95.40
5027;DHT22;2532;52.480;13.354;2023-01-29T07:35:52;3.10;95.50
5027;DHT22;2532;52.480;13.354;2023-01-29T07:38:19;3.10;95.40
5027;DHT22;2532;52.480;13.354;2023-01-29T07:40:46;3.10;95.50
5027;DHT22;2532;52.480;13.354;2023-01-29T07:43:13;3.10;95.50
5027;DHT22;2532;52.480;13.354;2023-01-29T07:45:40;3.10;95.50
5027;DHT22;2532;52.480;13.354;2023-01-29T07:48:10;3.10;95.50
5027;DHT22;2532;52.480;13.354;2023-01-29T07:50:38;3.10;95.60
5027;DHT22;2532;52.480;13.354;2023-01-29T07:53:14;3.10;95.60
5027;DHT22;2532;52.480;13.354;2023-01-29T07:55:43;3.10;95.60
5027;DHT22;2532;52.480;13.354;2023-01-29T07:58:10;3.10;95.70
5027;DHT22;2532;52.480;13.354;2023-01-29T08:00:37;3.10;95.70
5027;DHT22;2532;52.480;13.354;2023-01-29T08:03:05;3.10;95.80
5027;DHT22;2532;52.480;13.354;2023-01-29T08:05:33;3.10;96.00
5027;DHT22;2532;52.480;13.354;2023-01-29T08:07:59;3.20;96.10
5027;DHT22;2532;52.480;13.354;2023-01-29T08:10:28;3.20;96.20
5027;DHT22;2532;52.480;13.354;2023-01-29T08:12:55;3.20;96.20
5027;DHT22;2532;52.480;13.354;2023-01-29T08:15:23;3.20;96.30
5027;DHT22;2532;52.480;13.354;2023-01-29T08:17:50;3.20;96.40
5027;DHT22;2532;52.480;13.354;2023-01-29T08:20:18;3.20;96.40
5027;DHT22;2532;52.480;13.354;2023-01-29T08:22:45;3.20;96.40
5027;DHT22;2532;52.480;13.354;2023-01-29T08:25:13;3.20;96.40
5027;DHT22;2532;52.480;13.354;2023-01-29T08:27:41;3.30;96.40
5027;DHT22;2532;52.480;13.354;2023-01-29T08:30:09;3.20;96.40
5027;DHT22;2532;52.480;13.354;2023-01-29T08:32:36;3.20;96.50
5027;DHT22;2532;52.480;13.354;2023-01-29T08:35:04;3.20;96.50
5027;DHT22;2532;52.480;13.354;2023-01-29T08:37:31;3.20;96.50
5027;DHT22;2532;52.480;13.354;2023-01-29T08:39:58;3.20;96.70
5027;DHT22;2532;52.480;13.354;2023-01-29T08:42:25;3.20;96.90
5027;DHT22;2532;52.480;13.354;2023-01-29T08:44:53;3.30;96.90
5027;DHT22;2532;52.480;13.354;2023-01-29T08:47:20;3.30;96.80
5027;DHT22;2532;52.480;13.354;2023-01-29T08:49:47;3.30;96.80
5027;DHT22;2532;52.480;13.354;2023-01-29T08:52:14;3.30;96.70
5027;DHT22;2532;52.480;13.354;2023-01-29T08:54:40;3.30;96.60
5027;DHT22;2532;52.480;13.354;2023-01-29T08:57:07;3.30;96.60
5027;DHT22;2532;52.480;13.354;2023-01-29T08:59:34;3.30;96.70
5027;DHT22;2532;52.480;13.354;2023-01-29T09:02:02;3.30;96.70
5027;DHT22;2532;52.480;13.354;2023-01-29T09:04:29;3.20;96.60
5027;DHT22;2532;52.480;13.354;2023-01-29T09:06:56;3.20;96.70
5027;DHT22;2532;52.480;13.354;2023-01-29T09:09:23;3.20;96.80
5027;DHT22;2532;52.480;13.354;2023-01-29T09:11:50;3.20;96.80
5027;DHT22;2532;52.480;13.354;2023-01-29T09:14:17;3.30;96.90
5027;DHT22;2532;52.480;13.354;2023-01-29T09:16:44;3.40;96.90
5027;DHT22;2532;52.480;13.354;2023-01-29T09:19:12;3.50;96.80
5027;DHT22;2532;52.480;13.354;2023-01-29T09:21:39;3.40;96.60
5027;DHT22;2532;52.480;13.354;2023-01-29T09:24:06;3.50;96.50
5027;DHT22;2532;52.480;13.354;2023-01-29T09:26:33;3.50;96.30
5027;DHT22;2532;52.480;13.354;2023-01-29T09:29:01;3.50;96.20
5027;DHT22;2532;52.480;13.354;2023-01-29T09:31:28;3.50;96.20
5027;DHT22;2532;52.480;13.354;2023-01-29T09:33:54;3.50;96.30
5027;DHT22;2532;52.480;13.354;2023-01-29T09:36:23;3.50;96.60
5027;DHT22;2532;52.480;13.354;2023-01-29T09:38:50;3.50;96.20
5027;DHT22;2532;52.480;13.354;2023-01-29T09:41:26;3.60;96.10
5027;DHT22;2532;52.480;13.354;2023-01-29T09:44:02;3.60;96.00
5027;DHT22;2532;52.480;13.354;2023-01-29T09:46:42;3.60;95.90
5027;DHT22;2532;52.480;13.354;2023-01-29T09:49:13;3.60;95.90
5027;DHT22;2532;52.480;13.354;2023-01-29T09:51:46;3.70;95.90
5027;DHT22;2532;52.480;13.354;2023-01-29T09:54:17;3.70;95.80
5027;DHT22;2532;52.480;13.354;2023-01-29T09:56:51;3.70;95.80
5027;DHT22;2532;52.480;13.354;2023-01-29T09:59:21;3.80;95.80
5027;DHT22;2532;52.480;13.354;2023-01-29T10:01:54;3.80;95.70
5027;DHT22;2532;52.480;13.354;2023-01-29T10:07:42;4.00;95.70
5027;DHT22;2532;52.480;13.354;2023-01-29T10:10:21;4.10;95.60
5027;DHT22;2532;52.480;13.354;2023-01-29T10:13:02;4.10;95.40
5027;DHT22;2532;52.480;13.354;2023-01-29T10:15:51;4.20;95.30
5027;DHT22;2532;52.480;13.354;2023-01-29T10:18:36;4.30;95.30
5027;DHT22;2532;52.480;13.354;2023-01-29T10:21:18;4.30;95.10
5027;DHT22;2532;52.480;13.354;2023-01-29T10:23:54;4.30;95.10
5027;DHT22;2532;52.480;13.354;2023-01-29T10:26:25;4.40;95.00
5027;DHT22;2532;52.480;13.354;2023-01-29T10:28:54;4.50;94.80
5027;DHT22;2532;52.480;13.354;2023-01-29T10:31:25;4.50;94.60
5027;DHT22;2532;52.480;13.354;2023-01-29T10:33:59;4.50;94.60
5027;DHT22;2532;52.480;13.354;2023-01-29T10:36:34;4.50;94.50
5027;DHT22;2532;52.480;13.354;2023-01-29T10:39:03;4.50;94.40
5027;DHT22;2532;52.480;13.354;2023-01-29T10:41:46;4.50;94.30
5027;DHT22;2532;52.480;13.354;2023-01-29T10:44:23;4.60;94.40
5027;DHT22;2532;52.480;13.354;2023-01-29T10:47:06;4.70;94.40
5027;DHT22;2532;52.480;13.354;2023-01-29T10:49:52;4.70;94.10
5027;DHT22;2532;52.480;13.354;2023-01-29T10:52:32;4.70;93.90
5027;DHT22;2532;52.480;13.354;2023-01-29T10:55:13;4.80;93.90
5027;DHT22;2532;52.480;13.354;2023-01-29T10:57:58;4.80;93.80
5027;DHT22;2532;52.480;13.354;2023-01-29T11:00:29;4.90;93.80
5027;DHT22;2532;52.480;13.354;2023-01-29T11:03:11;4.90;93.70
5027;DHT22;2532;52.480;13.354;2023-01-29T11:05:42;4.90;93.70
5027;DHT22;2532;52.480;13.354;2023-01-29T11:08:13;4.90;93.50
5027;DHT22;2532;52.480;13.354;2023-01-29T11:10:47;5.00;93.60
5027;DHT22;2532;52.480;13.354;2023-01-29T11:13:17;5.10;93.50
5027;DHT22;2532;52.480;13.354;2023-01-29T11:15:44;5.10;93.30
5027;DHT22;2532;52.480;13.354;2023-01-29T11:18:13;5.10;93.10
5027;DHT22;2532;52.480;13.354;2023-01-29T11:20:41;5.10;93.00
5027;DHT22;2532;52.480;13.354;2023-01-29T11:23:24;5.10;92.90
5027;DHT22;2532;52.480;13.354;2023-01-29T11:25:55;5.10;92.80
5027;DHT22;2532;52.480;13.354;2023-01-29T11:28:36;5.20;92.90
5027;DHT22;2532;52.480;13.354;2023-01-29T11:31:14;5.20;92.60
5027;DHT22;2532;52.480;13.354;2023-01-29T11:33:42;5.20;92.60
5027;DHT22;2532;52.480;13.354;2023-01-29T11:36:28;5.20;92.60
5027;DHT22;2532;52.480;13.354;2023-01-29T11:39:17;5.20;92.60
5027;DHT22;2532;52.480;13.354;2023-01-29T11:41:49;5.30;92.80
5027;DHT22;2532;52.480;13.354;2023-01-29T11:44:21;5.40;92.60
5027;DHT22;2532;52.480;13.354;2023-01-29T11:46:49;5.40;92.30
5027;DHT22;2532;52.480;13.354;2023-01-29T11:49:30;5.40;92.20
5027;DHT22;2532;52.480;13.354;2023-01-29T11:52:00;5.40;92.10
5027;DHT22;2532;52.480;13.354;2023-01-29T11:54:31;5.30;92.10
5027;DHT22;2532;52.480;13.354;2023-01-29T11:57:02;5.30;92.00
5027;DHT22;2532;52.480;13.354;2023-01-29T11:59:37;5.30;92.20
5027;DHT22;2532;52.480;13.354;2023-01-29T12:04:58;5.40;92.20
5027;DHT22;2532;52.480;13.354;2023-01-29T12:07:25;5.50;92.20
5027;DHT22;2532;52.480;13.354;2023-01-29T12:09:55;5.50;92.30
5027;DHT22;2532;52.480;13.354;2023-01-29T12:12:34;5.50;92.00
5027;DHT22;2532;52.480;13.354;2023-01-29T12:15:18;5.50;91.90
5027;DHT22;2532;52.480;13.354;2023-01-29T12:17:52;5.60;92.20
5027;DHT22;2532;52.480;13.354;2023-01-29T12:20:25;5.70;92.00
5027;DHT22;2532;52.480;13.354;2023-01-29T12:23:00;5.70;91.70
5027;DHT22;2532;52.480;13.354;2023-01-29T12:25:39;5.70;91.60
5027;DHT22;2532;52.480;13.354;2023-01-29T12:28:21;5.80;91.80
5027;DHT22;2532;52.480;13.354;2023-01-29T12:31:07;5.70;91.80
5027;DHT22;2532;52.480;13.354;2023-01-29T12:33:40;5.70;91.60
5027;DHT22;2532;52.480;13.354;2023-01-29T12:36:13;5.70;91.70
5027;DHT22;2532;52.480;13.354;2023-01-29T12:38:44;5.70;91.50
5027;DHT22;2532;52.480;13.354;2023-01-29T12:41:27;5.70;91.60
5027;DHT22;2532;52.480;13.354;2023-01-29T12:44:00;5.60;91.40
5027;DHT22;2532;52.480;13.354;2023-01-29T12:46:31;5.50;91.60
5027;DHT22;2532;52.480;13.354;2023-01-29T12:49:02;5.50;91.70
5027;DHT22;2532;52.480;13.354;2023-01-29T12:51:34;5.40;91.70
5027;DHT22;2532;52.480;13.354;2023-01-29T12:54:05;5.40;91.80
5027;DHT22;2532;52.480;13.354;2023-01-29T12:56:35;5.40;91.80
5027;DHT22;2532;52.480;13.354;2023-01-29T12:59:16;5.40;91.80
5027;DHT22;2532;52.480;13.354;2023-01-29T13:01:47;5.30;91.80
5027;DHT22;2532;52.480;13.354;2023-01-29T13:04:18;5.30;91.90
5027;DHT22;2532;52.480;13.354;2023-01-29T13:06:50;5.30;92.00
5027;DHT22;2532;52.480;13.354;2023-01-29T13:09:21;5.40;92.40
5027;DHT22;2532;52.480;13.354;2023-01-29T13:11:52;5.40;92.00
5027;DHT22;2532;52.480;13.354;2023-01-29T13:14:24;5.50;92.00
5027;DHT22;2532;52.480;13.354;2023-01-29T13:16:56;5.60;91.80
5027;DHT22;2532;52.480;13.354;2023-01-29T13:19:32;5.60;91.80
5027;DHT22;2532;52.480;13.354;2023-01-29T13:22:02;5.60;91.90
5027;DHT22;2532;52.480;13.354;2023-01-29T13:24:34;5.60;91.80
5027;DHT22;2532;52.480;13.354;2023-01-29T13:27:03;5.70;91.70
5027;DHT22;2532;52.480;13.354;2023-01-29T13:29:31;5.70;91.70
5027;DHT22;2532;52.480;13.354;2023-01-29T13:31:59;5.70;91.80
5027;DHT22;2532;52.480;13.354;2023-01-29T13:34:29;5.70;91.60
5027;DHT22;2532;52.480;13.354;2023-01-29T13:37:01;5.70;91.60
5027;DHT22;2532;52.480;13.354;2023-01-29T13:39:30;5.60;91.60
5027;DHT22;2532;52.480;13.354;2023-01-29T13:41:59;5.60;91.70
5027;DHT22;2532;52.480;13.354;2023-01-29T13:44:31;5.60;91.70
5027;DHT22;2532;52.480;13.354;2023-01-29T13:47:02;5.60;91.70
5027;DHT22;2532;52.480;13.354;2023-01-29T13:49:33;5.60;91.70
5027;DHT22;2532;52.480;13.354;2023-01-29T13:52:20;5.60;91.90
5027;DHT22;2532;52.480;13.354;2023-01-29T13:54:52;5.50;91.80
5027;DHT22;2532;52.480;13.354;2023-01-29T13:57:47;5.50;91.90
5027;DHT22;2532;52.480;13.354;2023-01-29T14:03:52;5.30;92.00
5027;DHT22;2532;52.480;13.354;2023-01-29T14:06:43;5.20;92.20
5027;DHT22;2532;52.480;13.354;2023-01-29T14:12:31;5.20;92.60
5027;DHT22;2532;52.480;13.354;2023-01-29T14:15:04;5.10;92.80
5027;DHT22;2532;52.480;13.354;2023-01-29T14:17:39;5.10;93.10
5027;DHT22;2532;52.480;13.354;2023-01-29T14:20:28;5.00;93.30
5027;DHT22;2532;52.480;13.354;2023-01-29T14:22:58;5.00;93.50
5027;DHT22;2532;52.480;13.354;2023-01-29T14:25:28;4.90;93.70
5027;DHT22;2532;52.480;13.354;2023-01-29T14:27:57;4.90;93.90
5027;DHT22;2532;52.480;13.354;2023-01-29T14:30:28;4.90;94.10
5027;DHT22;2532;52.480;13.354;2023-01-29T14:32:56;4.90;94.30
5027;DHT22;2532;52.480;13.354;2023-01-29T14:35:26;4.90;94.30
5027;DHT22;2532;52.480;13.354;2023-01-29T14:38:00;4.90;94.40
5027;DHT22;2532;52.480;13.354;2023-01-29T14:40:29;4.80;94.60
5027;DHT22;2532;52.480;13.354;2023-01-29T14:42:59;4.80;94.80
5027;DHT22;2532;52.480;13.354;2023-01-29T14:45:28;4.80;94.80
5027;DHT22;2532;52.480;13.354;2023-01-29T14:48:34;4.90;94.90
5027;DHT22;2532;52.480;13.354;2023-01-29T14:51:08;4.90;94.80
5027;DHT22;2532;52.480;13.354;2023-01-29T14:53:53;4.90;94.90
5027;DHT22;2532;52.480;13.354;2023-01-29T14:56:27;4.90;95.00
5027;DHT22;2532;52.480;13.354;2023-01-29T14:59:03;4.90;95.00
5027;DHT22;2532;52.480;13.354;2023-01-29T15:01:37;4.90;95.00
5027;DHT22;2532;52.480;13.354;2023-01-29T15:04:10;4.90;95.10
5027;DHT22;2532;52.480;13.354;2023-01-29T15:06:44;4.90;95.10
5027;DHT22;2532;52.480;13.354;2023-01-29T15:09:13;5.00;95.20
5027;DHT22;2532;52.480;13.354;2023-01-29T15:11:48;5.00;95.20
5027;DHT22;2532;52.480;13.354;2023-01-29T15:14:23;4.90;95.10
5027;DHT22;2532;52.480;13.354;2023-01-29T15:17:00;4.90;95.00
5027;DHT22;2532;52.480;13.354;2023-01-29T15:19:32;4.80;95.20
5027;DHT22;2532;52.480;13.354;2023-01-29T15:22:19;4.80;95.30
5027;DHT22;2532;52.480;13.354;2023-01-29T15:25:02;4.70;95.40
5027;DHT22;2532;52.480;13.354;2023-01-29T15:27:30;4.70;95.40
5027;DHT22;2532;52.480;13.354;2023-01-29T15:29:59;4.70;95.30
5027;DHT22;2532;52.480;13.354;2023-01-29T15:32:31;4.60;95.40
5027;DHT22;2532;52.480;13.354;2023-01-29T15:34:59;4.60;95.40
5027;DHT22;2532;52.480;13.354;2023-01-29T15:37:30;4.60;95.80
5027;DHT22;2532;52.480;13.354;2023-01-29T15:39:59;4.60;95.50
5027;DHT22;2532;52.480;13.354;2023-01-29T15:42:27;4.50;95.50
5027;DHT22;2532;52.480;13.354;2023-01-29T15:44:54;4.50;95.40
5027;DHT22;2532;52.480;13.354;2023-01-29T15:47:29;4.40;95.40
5027;DHT22;2532;52.480;13.354;2023-01-29T15:49:59;4.50;95.50
5027;DHT22;2532;52.480;13.354;2023-01-29T15:52:27;4.40;95.50
5027;DHT22;2532;52.480;13.354;2023-01-29T15:55:02;4.40;95.60
5027;DHT22;2532;52.480;13.354;2023-01-29T15:57:33;4.40;95.60
5027;DHT22;2532;52.480;13.354;2023-01-29T16:00:02;4.50;95.50
5027;DHT22;2532;52.480;13.354;2023-01-29T16:02:38;4.40;95.40
5027;DHT22;2532;52.480;13.354;2023-01-29T16:05:10;4.40;95.60
5027;DHT22;2532;52.480;13.354;2023-01-29T16:07:39;4.40;95.50
5027;DHT22;2532;52.480;13.354;2023-01-29T16:10:13;4.40;95.50
5027;DHT22;2532;52.480;13.354;2023-01-29T16:12:41;4.40;95.50
5027;DHT22;2532;52.480;13.354;2023-01-29T16:15:28;4.40;95.40
5027;DHT22;2532;52.480;13.354;2023-01-29T16:17:59;4.50;95.50
5027;DHT22;2532;52.480;13.354;2023-01-29T16:20:36;4.50;95.40
5027;DHT22;2532;52.480;13.354;2023-01-29T16:23:05;4.50;95.30
5027;DHT22;2532;52.480;13.354;2023-01-29T16:25:36;4.50;95.30
5027;DHT22;2532;52.480;13.354;2023-01-29T16:28:07;4.50;95.30
5027;DHT22;2532;52.480;13.354;2023-01-29T16:30:38;4.50;95.30
5027;DHT22;2532;52.480;13.354;2023-01-29T16:33:10;4.50;95.20
5027;DHT22;2532;52.480;13.354;2023-01-29T16:35:38;4.60;95.10
5027;DHT22;2532;52.480;13.354;2023-01-29T16:38:18;4.50;95.10
5027;DHT22;2532;52.480;13.354;2023-01-29T16:41:06;4.60;95.00
5027;DHT22;2532;52.480;13.354;2023-01-29T16:43:50;4.50;94.90
5027;DHT22;2532;52.480;13.354;2023-01-29T16:46:22;4.50;94.90